sensor_id;sensor_type;location;lat;lon;timestamp;pressure;altitude;pressure_sealevel;temperature;humidity
28167;BME280;15455;53.376;-6.262;2023-02-17T00:01:54;101209.44;;;11.47;100.00
28167;BME280;15455;53.376;-6.262;2023-02-17T00:04:40;101219.91;;;11.47;100.00
28167;BME280;15455;53.376;-6.262;2023-02-17T00:07:25;101209.44;;;11.47;100.00
28167;BME280;15455;53.376;-6.262;2023-02-17T00:10:15;101205.97;;;11.45;100.00
28167;BME280;15455;53.376;-6.262;2023-02-17T00:13:01;101205.97;;;11.47;100.00
28167;BME280;15455;53.376;-6.262;2023-02-17T00:15:47;101192.91;;;11.45;100.00
28167;BME280;15455;53.376;-6.262;2023-02-17T00:18:32;101196.38;;;11.44;100.00
28167;BME280;15455;53.376;-6.262;2023-02-17T00:21:20;101180.72;;;11.43;100.00
28167;BME280;15455;53.376;-6.262;2023-02-17T00:24:06;101193.78;;;11.43;100.00
28167;BME280;15455;53.376;-6.262;2023-02-17T00:26:51;101166.75;;;11.41;100.00
28167;BME280;15455;53.376;-6.262;2023-02-17T00:29:37;101173.72;;;11.40;100.00
28167;BME280;15455;53.376;-6.262;2023-02-17T00:32:22;101176.34;;;11.40;100.00
28167;BME280;15455;53.376;-6.262;2023-02-17T00:35:08;101186.78;;;11.40;100.00
28167;BME280;15455;53.376;-6.262;2023-02-17T00:37:53;101178.94;;;11.42;100.00
28167;BME280;15455;53.376;-6.262;2023-02-17T00:40:38;101169.34;;;11.39;100.00
28167;BME280;15455;53.376;-6.262;2023-02-17T00:43:25;101169.34;;;11.41;100.00
28167;BME280;15455;53.376;-6.262;2023-02-17T00:46:11;101199.00;;;11.43;100.00
28167;BME280;15455;53.376;-6.262;2023-02-17T00:48:57;101186.78;;;11.43;100.00
28167;BME280;15455;53.376;-6.262;2023-02-17T00:51:43;101176.34;;;11.43;100.00
28167;BME280;15455;53.376;-6.262;2023-02-17T00:54:29;101178.09;;;11.44;100.00
28167;BME280;15455;53.376;-6.262;2023-02-17T00:57:14;101162.41;;;11.46;100.00
28167;BME280;15455;53.376;-6.262;2023-02-17T01:00:00;101172.88;;;11.46;100.00
28167;BME280;15455;53.376;-6.262;2023-02-17T01:02:45;101160.66;;;11.46;100.00
28167;BME280;15455;53.376;-6.262;2023-02-17T01:05:30;101151.09;;;11.45;100.00
28167;BME280;15455;53.376;-6.262;2023-02-17T01:08:16;101172.00;;;11.45;100.00
28167;BME280;15455;53.376;-6.262;2023-02-17T01:11:02;101170.25;;;11.44;100.00
28167;BME280;15455;53.376;-6.262;2023-02-17T01:13:49;101165.88;;;11.45;100.00
28167;BME280;15455;53.376;-6.262;2023-02-17T01:16:37;101166.78;;;11.45;100.00
28167;BME280;15455;53.376;-6.262;2023-02-17T01:19:23;101163.28;;;11.43;100.00
28167;BME280;15455;53.376;-6.262;2023-02-17T01:22:09;101158.03;;;11.40;100.00
28167;BME280;15455;53.376;-6.262;2023-02-17T01:24:55;101163.28;;;11.40;100.00
28167;BME280;15455;53.376;-6.262;2023-02-17T01:27:40;101162.41;;;11.40;100.00
28167;BME280;15455;53.376;-6.262;2023-02-17T01:30:26;101138.00;;;11.38;100.00
28167;BME280;15455;53.376;-6.262;2023-02-17T01:33:12;101136.28;;;11.40;100.00
28167;BME280;15455;53.376;-6.262;2023-02-17T01:36:02;101146.72;;;11.40;100.00
28167;BME280;15455;53.376;-6.262;2023-02-17T01:38:49;101147.59;;;11.42;100.00
28167;BME280;15455;53.376;-6.262;2023-02-17T01:41:35;101130.16;;;11.39;100.00
28167;BME280;15455;53.376;-6.262;2023-02-17T01:44:22;101144.13;;;11.40;100.00
28167;BME280;15455;53.376;-6.262;2023-02-17T01:47:11;101151.97;;;11.41;100.00
28167;BME280;15455;53.376;-6.262;2023-02-17T01:49:57;101131.03;;;11.47;100.00
28167;BME280;15455;53.376;-6.262;2023-02-17T01:52:43;101116.22;;;11.48;100.00
28167;BME280;15455;53.376;-6.262;2023-02-17T01:55:31;101135.41;;;11.52;100.00
28167;BME280;15455;53.376;-6.262;2023-02-17T01:58:18;101135.41;;;11.55;100.00
28167;BME280;15455;53.376;-6.262;2023-02-17T02:01:05;101131.91;;;11.57;100.00
28167;BME280;15455;53.376;-6.262;2023-02-17T02:03:52;101124.06;;;11.59;100.00
28167;BME280;15455;53.376;-6.262;2023-02-17T02:06:39;101107.53;;;11.63;100.00
28167;BME280;15455;53.376;-6.262;2023-02-17T02:09:35;101108.38;;;11.65;100.00
28167;BME280;15455;53.376;-6.262;2023-02-17T02:15:17;101100.50;;;11.73;100.00
28167;BME280;15455;53.376;-6.262;2023-02-17T02:18:37;101103.16;;;11.74;100.00
28167;BME280;15455;53.376;-6.262;2023-02-17T02:21:39;101092.69;;;11.74;100.00
28167;BME280;15455;53.376;-6.262;2023-02-17T02:27:51;101083.09;;;11.75;100.00
28167;BME280;15455;53.376;-6.262;2023-02-17T02:34:24;101062.19;;;11.73;100.00
28167;BME280;15455;53.376;-6.262;2023-02-17T02:37:34;101056.94;;;11.75;100.00
28167;BME280;15455;53.376;-6.262;2023-02-17T02:40:23;101060.41;;;11.75;100.00
28167;BME280;15455;53.376;-6.262;2023-02-17T02:43:12;101047.34;;;11.71;100.00
28167;BME280;15455;53.376;-6.262;2023-02-17T02:45:59;101055.22;;;11.68;100.00
28167;BME280;15455;53.376;-6.262;2023-02-17T02:48:45;101045.63;;;11.65;100.00
28167;BME280;15455;53.376;-6.262;2023-02-17T02:51:50;101045.63;;;11.63;100.00
28167;BME280;15455;53.376;-6.262;2023-02-17T02:57:44;101035.19;;;11.59;100.00
28167;BME280;15455;53.376;-6.262;2023-02-17T03:00:48;101023.84;;;11.54;100.00
28167;BME280;15455;53.376;-6.262;2023-02-17T03:03:51;101038.66;;;11.56;100.00
28167;BME280;15455;53.376;-6.262;2023-02-17T03:06:52;101028.22;;;11.58;100.00
28167;BME280;15455;53.376;-6.262;2023-02-17T03:09:40;101024.72;;;11.60;100.00
28167;BME280;15455;53.376;-6.262;2023-02-17T03:12:26;101034.31;;;11.63;100.00
28167;BME280;15455;53.376;-6.262;2023-02-17T03:18:08;101016.00;;;11.66;100.00
28167;BME280;15455;53.376;-6.262;2023-02-17T03:20:56;101002.94;;;11.68;100.00
28167;BME280;15455;53.376;-6.262;2023-02-17T03:23:45;101014.25;;;11.68;100.00
28167;BME280;15455;53.376;-6.262;2023-02-17T03:26:31;101011.66;;;11.63;100.00
28167;BME280;15455;53.376;-6.262;2023-02-17T03:29:17;100985.50;;;11.62;100.00
28167;BME280;15455;53.376;-6.262;2023-02-17T03:32:03;101005.56;;;11.63;100.00
28167;BME280;15455;53.376;-6.262;2023-02-17T03:34:49;100995.13;;;11.58;100.00
28167;BME280;15455;53.376;-6.262;2023-02-17T03:37:35;100995.09;;;11.57;100.00
28167;BME280;15455;53.376;-6.262;2023-02-17T03:40:20;101027.34;;;11.59;100.00
28167;BME280;15455;53.376;-6.262;2023-02-17T03:43:05;101023.88;;;11.61;100.00
28167;BME280;15455;53.376;-6.262;2023-02-17T03:45:51;101018.63;;;11.63;100.00
28167;BME280;15455;53.376;-6.262;2023-02-17T03:48:36;101032.56;;;11.65;100.00
28167;BME280;15455;53.376;-6.262;2023-02-17T03:51:22;101038.63;;;11.65;100.00
28167;BME280;15455;53.376;-6.262;2023-02-17T03:54:08;101034.31;;;11.63;100.00
28167;BME280;15455;53.376;-6.262;2023-02-17T03:56:53;101056.97;;;11.58;100.00
28167;BME280;15455;53.376;-6.262;2023-02-17T03:59:39;101072.66;;;11.52;100.00
28167;BME280;15455;53.376;-6.262;2023-02-17T04:02:24;101084.84;;;11.46;100.00
28167;BME280;15455;53.376;-6.262;2023-02-17T04:05:10;101080.50;;;11.41;100.00
28167;BME280;15455;53.376;-6.262;2023-02-17T04:07:56;101084.88;;;11.37;100.00
28167;BME280;15455;53.376;-6.262;2023-02-17T04:10:41;101089.22;;;11.34;100.00
28167;BME280;15455;53.376;-6.262;2023-02-17T04:13:26;101084.84;;;11.28;100.00
28167;BME280;15455;53.376;-6.262;2023-02-17T04:16:12;101097.94;;;11.20;100.00
28167;BME280;15455;53.376;-6.262;2023-02-17T04:18:58;101114.47;;;11.15;100.00
28167;BME280;15455;53.376;-6.262;2023-02-17T04:21:43;101120.56;;;11.07;100.00
28167;BME280;15455;53.376;-6.262;2023-02-17T04:24:28;101124.03;;;11.05;100.00
28167;BME280;15455;53.376;-6.262;2023-02-17T04:27:14;101140.59;;;11.02;100.00
28167;BME280;15455;53.376;-6.262;2023-02-17T04:29:59;101144.91;;;11.00;100.00
28167;BME280;15455;53.376;-6.262;2023-02-17T04:32:44;101157.97;;;11.00;100.00
28167;BME280;15455;53.376;-6.262;2023-02-17T04:35:30;101157.97;;;10.99;100.00
28167;BME280;15455;53.376;-6.262;2023-02-17T04:38:15;101147.53;;;10.95;100.00
28167;BME280;15455;53.376;-6.262;2023-02-17T04:41:01;101159.72;;;10.93;100.00
28167;BME280;15455;53.376;-6.262;2023-02-17T04:43:46;101154.50;;;10.92;100.00
28167;BME280;15455;53.376;-6.262;2023-02-17T04:46:32;101168.41;;;10.91;100.00
28167;BME280;15455;53.376;-6.262;2023-02-17T04:49:17;101171.88;;;10.87;100.00
28167;BME280;15455;53.376;-6.262;2023-02-17T04:52:03;101178.84;;;10.85;100.00
28167;BME280;15455;53.376;-6.262;2023-02-17T04:54:48;101186.66;;;10.83;100.00
28167;BME280;15455;53.376;-6.262;2023-02-17T04:57:34;101187.53;;;10.81;100.00
28167;BME280;15455;53.376;-6.262;2023-02-17T05:00:20;101172.72;;;10.80;100.00
28167;BME280;15455;53.376;-6.262;2023-02-17T05:03:05;101175.31;;;10.76;100.00
28167;BME280;15455;53.376;-6.262;2023-02-17T05:05:51;101186.63;;;10.77;100.00
28167;BME280;15455;53.376;-6.262;2023-02-17T05:08:36;101193.59;;;10.76;100.00
28167;BME280;15455;53.376;-6.262;2023-02-17T05:11:22;101201.44;;;10.80;100.00
28167;BME280;15455;53.376;-6.262;2023-02-17T05:14:07;101181.41;;;10.80;100.00
28167;BME280;15455;53.376;-6.262;2023-02-17T05:16:53;101199.69;;;10.82;100.00
28167;BME280;15455;53.376;-6.262;2023-02-17T05:19:38;101187.53;;;10.84;100.00
28167;BME280;15455;53.376;-6.262;2023-02-17T05:22:23;101184.06;;;10.86;100.00
28167;BME280;15455;53.376;-6.262;2023-02-17T05:25:09;101181.47;;;10.88;100.00
28167;BME280;15455;53.376;-6.262;2023-02-17T05:27:54;101198.00;;;10.90;100.00
28167;BME280;15455;53.376;-6.262;2023-02-17T05:30:40;101194.53;;;10.91;100.00
28167;BME280;15455;53.376;-6.262;2023-02-17T05:33:25;101204.06;;;10.90;100.00
28167;BME280;15455;53.376;-6.262;2023-02-17T05:36:11;101202.34;;;10.89;100.00
28167;BME280;15455;53.376;-6.262;2023-02-17T05:38:57;101195.38;;;10.87;100.00
28167;BME280;15455;53.376;-6.262;2023-02-17T05:41:42;101229.31;;;10.85;100.00
28167;BME280;15455;53.376;-6.262;2023-02-17T05:44:27;101216.28;;;10.87;100.00
28167;BME280;15455;53.376;-6.262;2023-02-17T05:47:13;101204.06;;;10.89;100.00
28167;BME280;15455;53.376;-6.262;2023-02-17T05:49:58;101209.28;;;10.89;100.00
28167;BME280;15455;53.376;-6.262;2023-02-17T05:52:44;101196.22;;;10.84;100.00
28167;BME280;15455;53.376;-6.262;2023-02-17T05:55:29;101209.28;;;10.86;100.00
28167;BME280;15455;53.376;-6.262;2023-02-17T05:58:15;101212.78;;;10.86;100.00
28167;BME280;15455;53.376;-6.262;2023-02-17T06:01:00;101224.97;;;10.89;100.00
28167;BME280;15455;53.376;-6.262;2023-02-17T06:03:45;101195.38;;;10.91;100.00
28167;BME280;15455;53.376;-6.262;2023-02-17T06:06:31;101196.25;;;10.89;100.00
28167;BME280;15455;53.376;-6.262;2023-02-17T06:09:17;101197.13;;;10.86;100.00
28167;BME280;15455;53.376;-6.262;2023-02-17T06:12:02;101196.22;;;10.83;100.00
28167;BME280;15455;53.376;-6.262;2023-02-17T06:14:48;101201.44;;;10.80;100.00
28167;BME280;15455;53.376;-6.262;2023-02-17T06:17:34;101215.34;;;10.78;100.00
28167;BME280;15455;53.376;-6.262;2023-02-17T06:20:19;101214.50;;;10.81;100.00
28167;BME280;15455;53.376;-6.262;2023-02-17T06:23:05;101216.25;;;10.84;100.00
28167;BME280;15455;53.376;-6.262;2023-02-17T06:25:50;101225.84;;;10.86;100.00
28167;BME280;15455;53.376;-6.262;2023-02-17T06:28:36;101229.34;;;10.90;100.00
28167;BME280;15455;53.376;-6.262;2023-02-17T06:31:21;101245.00;;;10.94;100.00
28167;BME280;15455;53.376;-6.262;2023-02-17T06:34:07;101232.88;;;11.01;100.00
28167;BME280;15455;53.376;-6.262;2023-02-17T06:36:53;101234.63;;;11.08;100.00
28167;BME280;15455;53.376;-6.262;2023-02-17T06:39:39;101248.56;;;11.09;100.00
28167;BME280;15455;53.376;-6.262;2023-02-17T06:42:25;101260.75;;;11.05;100.00
28167;BME280;15455;53.376;-6.262;2023-02-17T06:45:10;101257.22;;;10.99;100.00
28167;BME280;15455;53.376;-6.262;2023-02-17T06:47:56;101276.34;;;10.93;100.00
28167;BME280;15455;53.376;-6.262;2023-02-17T06:50:41;101278.03;;;10.82;100.00
28167;BME280;15455;53.376;-6.262;2023-02-17T06:53:27;101309.28;;;10.66;100.00
28167;BME280;15455;53.376;-6.262;2023-02-17T06:56:12;101324.00;;;10.55;100.00
28167;BME280;15455;53.376;-6.262;2023-02-17T06:58:58;101339.56;;;10.46;100.00
28167;BME280;15455;53.376;-6.262;2023-02-17T07:01:43;101342.16;;;10.42;100.00
28167;BME280;15455;53.376;-6.262;2023-02-17T07:04:29;101347.38;;;10.39;100.00
28167;BME280;15455;53.376;-6.262;2023-02-17T07:07:14;101351.69;;;10.34;100.00
28167;BME280;15455;53.376;-6.262;2023-02-17T07:09:59;101355.94;;;10.26;100.00
28167;BME280;15455;53.376;-6.262;2023-02-17T07:12:45;101355.03;;;10.24;100.00
28167;BME280;15455;53.376;-6.262;2023-02-17T07:15:30;101369.78;;;10.19;100.00
28167;BME280;15455;53.376;-6.262;2023-02-17T07:18:16;101374.16;;;10.20;100.00
28167;BME280;15455;53.376;-6.262;2023-02-17T07:21:01;101385.44;;;10.19;100.00
28167;BME280;15455;53.376;-6.262;2023-02-17T07:23:46;101377.59;;;10.19;100.00
28167;BME280;15455;53.376;-6.262;2023-02-17T07:26:36;101384.59;;;10.21;100.00
28167;BME280;15455;53.376;-6.262;2023-02-17T07:29:22;101393.28;;;10.22;100.00
28167;BME280;15455;53.376;-6.262;2023-02-17T07:32:08;101389.81;;;10.21;100.00
28167;BME280;15455;53.376;-6.262;2023-02-17T07:34:53;101408.91;;;10.20;100.00
28167;BME280;15455;53.376;-6.262;2023-02-17T07:37:39;101408.91;;;10.17;100.00
28167;BME280;15455;53.376;-6.262;2023-02-17T07:40:25;101414.97;;;10.16;100.00
28167;BME280;15455;53.376;-6.262;2023-02-17T07:43:10;101428.84;;;10.15;100.00
28167;BME280;15455;53.376;-6.262;2023-02-17T07:45:56;101440.19;;;10.16;100.00
28167;BME280;15455;53.376;-6.262;2023-02-17T07:48:44;101441.00;;;10.13;100.00
28167;BME280;15455;53.376;-6.262;2023-02-17T07:51:30;101442.75;;;10.13;100.00
28167;BME280;15455;53.376;-6.262;2023-02-17T07:54:16;101449.63;;;10.06;100.00
28167;BME280;15455;53.376;-6.262;2023-02-17T07:57:03;101444.34;;;10.00;100.00
28167;BME280;15455;53.376;-6.262;2023-02-17T07:59:48;101443.44;;;9.96;100.00
28167;BME280;15455;53.376;-6.262;2023-02-17T08:02:33;101465.13;;;9.92;100.00
28167;BME280;15455;53.376;-6.262;2023-02-17T08:05:19;101456.41;;;9.90;100.00
28167;BME280;15455;53.376;-6.262;2023-02-17T08:08:04;101459.91;;;9.92;100.00
28167;BME280;15455;53.376;-6.262;2023-02-17T08:11:12;101463.41;;;9.94;100.00
28167;BME280;15455;53.376;-6.262;2023-02-17T08:14:20;101460.84;;;9.97;100.00
28167;BME280;15455;53.376;-6.262;2023-02-17T08:17:06;101460.00;;;9.98;100.00
28167;BME280;15455;53.376;-6.262;2023-02-17T08:19:51;101457.38;;;9.98;100.00
28167;BME280;15455;53.376;-6.262;2023-02-17T08:22:37;101448.69;;;9.99;100.00
28167;BME280;15455;53.376;-6.262;2023-02-17T08:25:22;101467.78;;;9.97;100.00
28167;BME280;15455;53.376;-6.262;2023-02-17T08:28:10;101463.41;;;9.94;100.00
28167;BME280;15455;53.376;-6.262;2023-02-17T08:30:56;101465.13;;;9.94;100.00
28167;BME280;15455;53.376;-6.262;2023-02-17T08:33:42;101479.97;;;9.99;100.00
28167;BME280;15455;53.376;-6.262;2023-02-17T08:36:28;101476.53;;;10.00;100.00
28167;BME280;15455;53.376;-6.262;2023-02-17T08:39:16;101493.13;;;10.07;100.00
28167;BME280;15455;53.376;-6.262;2023-02-17T08:42:03;101508.78;;;10.08;100.00
28167;BME280;15455;53.376;-6.262;2023-02-17T08:44:49;101491.34;;;10.04;100.00
28167;BME280;15455;53.376;-6.262;2023-02-17T08:47:35;101506.97;;;10.03;100.00
28167;BME280;15455;53.376;-6.262;2023-02-17T08:50:21;101518.28;;;10.03;100.00
28167;BME280;15455;53.376;-6.262;2023-02-17T08:53:07;101538.31;;;10.06;100.00
28167;BME280;15455;53.376;-6.262;2023-02-17T08:55:53;101535.75;;;10.11;100.00
28167;BME280;15455;53.376;-6.262;2023-02-17T08:58:38;101551.44;;;10.14;100.00
28167;BME280;15455;53.376;-6.262;2023-02-17T09:01:24;101559.25;;;10.14;100.00
28167;BME280;15455;53.376;-6.262;2023-02-17T09:04:12;101567.97;;;10.14;100.00
28167;BME280;15455;53.376;-6.262;2023-02-17T09:06:58;101579.34;;;10.19;100.00
28167;BME280;15455;53.376;-6.262;2023-02-17T09:09:44;101601.16;;;10.24;100.00
28167;BME280;15455;53.376;-6.262;2023-02-17T09:12:29;101603.84;;;10.32;100.00
28167;BME280;15455;53.376;-6.262;2023-02-17T09:15:15;101610.03;;;10.37;100.00
28167;BME280;15455;53.376;-6.262;2023-02-17T09:18:00;101613.53;;;10.39;100.00
28167;BME280;15455;53.376;-6.262;2023-02-17T09:20:47;101623.09;;;10.39;100.00
28167;BME280;15455;53.376;-6.262;2023-02-17T09:23:33;101631.78;;;10.39;100.00
28167;BME280;15455;53.376;-6.262;2023-02-17T09:26:18;101643.09;;;10.38;100.00
28167;BME280;15455;53.376;-6.262;2023-02-17T09:29:04;101646.63;;;10.42;100.00
28167;BME280;15455;53.376;-6.262;2023-02-17T09:31:50;101668.41;;;10.46;100.00
28167;BME280;15455;53.376;-6.262;2023-02-17T09:34:37;101664.94;;;10.45;100.00
28167;BME280;15455;53.376;-6.262;2023-02-17T09:37:22;101657.03;;;10.40;100.00
28167;BME280;15455;53.376;-6.262;2023-02-17T09:43:28;101678.94;;;10.50;100.00
28167;BME280;15455;53.376;-6.262;2023-02-17T09:46:34;101683.34;;;10.54;100.00
28167;BME280;15455;53.376;-6.262;2023-02-17T09:49:25;101683.41;;;10.60;100.00
28167;BME280;15455;53.376;-6.262;2023-02-17T09:52:26;101675.66;;;10.68;100.00
28167;BME280;15455;53.376;-6.262;2023-02-17T09:55:24;101682.66;;;10.72;100.00
28167;BME280;15455;53.376;-6.262;2023-02-17T09:58:29;101695.78;;;10.78;100.00
28167;BME280;15455;53.376;-6.262;2023-02-17T10:01:19;101692.34;;;10.83;100.00
28167;BME280;15455;53.376;-6.262;2023-02-17T10:04:09;101695.03;;;10.87;100.00
28167;BME280;15455;53.376;-6.262;2023-02-17T10:07:04;101702.97;;;10.95;100.00
28167;BME280;15455;53.376;-6.262;2023-02-17T10:10:06;101716.06;;;11.00;100.00
28167;BME280;15455;53.376;-6.262;2023-02-17T10:12:55;101721.34;;;11.04;100.00
28167;BME280;15455;53.376;-6.262;2023-02-17T10:15:47;101724.88;;;11.06;100.00
28167;BME280;15455;53.376;-6.262;2023-02-17T10:18:43;101730.91;;;11.04;100.00
28167;BME280;15455;53.376;-6.262;2023-02-17T10:21:36;101740.47;;;11.03;100.00
28167;BME280;15455;53.376;-6.262;2023-02-17T10:24:23;101733.53;;;11.02;100.00
28167;BME280;15455;53.376;-6.262;2023-02-17T10:27:13;101735.34;;;11.09;100.00
28167;BME280;15455;53.376;-6.262;2023-02-17T10:33:12;101750.28;;;11.23;100.00
28167;BME280;15455;53.376;-6.262;2023-02-17T10:39:13;101738.19;;;11.29;100.00
28167;BME280;15455;53.376;-6.262;2023-02-17T10:41:59;101752.09;;;11.30;100.00
28167;BME280;15455;53.376;-6.262;2023-02-17T10:44:44;101757.38;;;11.33;100.00
28167;BME280;15455;53.376;-6.262;2023-02-17T10:47:32;101759.13;;;11.34;100.00
28167;BME280;15455;53.376;-6.262;2023-02-17T10:50:21;101773.13;;;11.42;100.00
28167;BME280;15455;53.376;-6.262;2023-02-17T10:53:22;101767.97;;;11.45;100.00
28167;BME280;15455;53.376;-6.262;2023-02-17T10:56:33;101768.00;;;11.50;100.00
28167;BME280;15455;53.376;-6.262;2023-02-17T10:59:24;101770.72;;;11.62;100.00
28167;BME280;15455;53.376;-6.262;2023-02-17T11:02:27;101780.44;;;11.74;100.00
28167;BME280;15455;53.376;-6.262;2023-02-17T11:05:25;101782.19;;;11.77;100.00
28167;BME280;15455;53.376;-6.262;2023-02-17T11:08:29;101804.78;;;11.67;100.00
28167;BME280;15455;53.376;-6.262;2023-02-17T11:11:23;101802.97;;;11.60;100.00
28167;BME280;15455;53.376;-6.262;2023-02-17T11:14:20;101805.50;;;11.54;100.00
28167;BME280;15455;53.376;-6.262;2023-02-17T11:23:19;101845.22;;;11.22;100.00
28167;BME280;15455;53.376;-6.262;2023-02-17T11:26:16;101862.44;;;11.07;100.00
28167;BME280;15455;53.376;-6.262;2023-02-17T11:29:22;101870.25;;;11.04;100.00
28167;BME280;15455;53.376;-6.262;2023-02-17T11:32:11;101866.44;;;10.81;100.00
28167;BME280;15455;53.376;-6.262;2023-02-17T11:34:58;101858.97;;;10.47;100.00
28167;BME280;15455;53.376;-6.262;2023-02-17T11:37:51;101867.44;;;10.34;100.00
28167;BME280;15455;53.376;-6.262;2023-02-17T11:40:37;101880.16;;;10.17;100.00
28167;BME280;15455;53.376;-6.262;2023-02-17T11:43:23;101885.16;;;10.04;100.00
28167;BME280;15455;53.376;-6.262;2023-02-17T11:46:32;101884.97;;;9.94;100.00
28167;BME280;15455;53.376;-6.262;2023-02-17T11:55:34;101901.03;;;9.69;100.00
28167;BME280;15455;53.376;-6.262;2023-02-17T11:58:39;101903.75;;;9.76;100.00
28167;BME280;15455;53.376;-6.262;2023-02-17T12:21:22;101908.00;;;10.18;100.00
28167;BME280;15455;53.376;-6.262;2023-02-17T12:26:47;101904.81;;;10.33;100.00
28167;BME280;15455;53.376;-6.262;2023-02-17T12:35:50;101888.72;;;10.58;100.00
28167;BME280;15455;53.376;-6.262;2023-02-17T12:38:43;101874.78;;;10.58;100.00
28167;BME280;15455;53.376;-6.262;2023-02-17T12:41:38;101869.56;;;10.58;100.00
28167;BME280;15455;53.376;-6.262;2023-02-17T12:44:28;101871.41;;;10.65;100.00
28167;BME280;15455;53.376;-6.262;2023-02-17T12:47:22;101863.63;;;10.67;100.00
28167;BME280;15455;53.376;-6.262;2023-02-17T12:50:18;101866.31;;;10.73;100.00
28167;BME280;15455;53.376;-6.262;2023-02-17T12:53:11;101861.19;;;10.79;100.00
28167;BME280;15455;53.376;-6.262;2023-02-17T12:56:01;101853.44;;;10.85;100.00
28167;BME280;15455;53.376;-6.262;2023-02-17T12:58:50;101854.34;;;10.89;100.00
28167;BME280;15455;53.376;-6.262;2023-02-17T13:01:40;101858.69;;;10.88;100.00
28167;BME280;15455;53.376;-6.262;2023-02-17T13:04:27;101854.41;;;10.92;100.00
28167;BME280;15455;53.376;-6.262;2023-02-17T13:07:40;101852.72;;;10.95;100.00
28167;BME280;15455;53.376;-6.262;2023-02-17T13:10:39;101848.41;;;10.99;100.00
28167;BME280;15455;53.376;-6.262;2023-02-17T13:13:28;101831.84;;;10.97;100.00
28167;BME280;15455;53.376;-6.262;2023-02-17T13:16:14;101843.28;;;11.07;100.00
28167;BME280;15455;53.376;-6.262;2023-02-17T13:19:06;101839.88;;;11.12;100.00
28167;BME280;15455;53.376;-6.262;2023-02-17T13:21:54;101842.47;;;11.11;100.00
28167;BME280;15455;53.376;-6.262;2023-02-17T13:24:52;101834.75;;;11.20;100.00
28167;BME280;15455;53.376;-6.262;2023-02-17T13:27:38;101840.03;;;11.28;100.00
28167;BME280;15455;53.376;-6.262;2023-02-17T13:36:12;101830.69;;;11.45;100.00
28167;BME280;15455;53.376;-6.262;2023-02-17T13:39:04;101821.94;;;11.43;100.00
28167;BME280;15455;53.376;-6.262;2023-02-17T13:41:54;101821.06;;;11.43;100.00
28167;BME280;15455;53.376;-6.262;2023-02-17T13:44:40;101830.81;;;11.58;100.00
28167;BME280;15455;53.376;-6.262;2023-02-17T13:47:33;101826.72;;;11.81;100.00
28167;BME280;15455;53.376;-6.262;2023-02-17T13:53:39;101798.19;;;12.06;100.00
28167;BME280;15455;53.376;-6.262;2023-02-17T13:56:28;101788.63;;;12.14;100.00
28167;BME280;15455;53.376;-6.262;2023-02-17T13:59:15;101786.13;;;12.27;100.00
28167;BME280;15455;53.376;-6.262;2023-02-17T14:02:02;101775.72;;;12.39;100.00
28167;BME280;15455;53.376;-6.262;2023-02-17T14:04:48;101771.41;;;12.46;100.00
28167;BME280;15455;53.376;-6.262;2023-02-17T14:07:34;101748.69;;;12.40;100.00
28167;BME280;15455;53.376;-6.262;2023-02-17T14:10:23;101740.00;;;12.44;100.00
28167;BME280;15455;53.376;-6.262;2023-02-17T14:13:10;101733.94;;;12.51;100.00
28167;BME280;15455;53.376;-6.262;2023-02-17T14:15:58;101724.38;;;12.61;100.00
28167;BME280;15455;53.376;-6.262;2023-02-17T14:18:44;101734.00;;;12.68;100.00
28167;BME280;15455;53.376;-6.262;2023-02-17T14:21:30;101737.50;;;12.71;100.00
28167;BME280;15455;53.376;-6.262;2023-02-17T14:24:28;101722.72;;;12.79;100.00
28167;BME280;15455;53.376;-6.262;2023-02-17T14:27:14;101716.56;;;12.75;100.00
28167;BME280;15455;53.376;-6.262;2023-02-17T14:30:00;101713.94;;;12.75;100.00
28167;BME280;15455;53.376;-6.262;2023-02-17T14:35:56;101714.03;;;12.95;100.00
28167;BME280;15455;53.376;-6.262;2023-02-17T14:38:41;101718.41;;;13.02;100.00
28167;BME280;15455;53.376;-6.262;2023-02-17T14:41:27;101707.06;;;13.13;100.00
28167;BME280;15455;53.376;-6.262;2023-02-17T14:44:13;101713.22;;;13.10;100.00
28167;BME280;15455;53.376;-6.262;2023-02-17T14:46:59;101714.94;;;13.08;100.00
28167;BME280;15455;53.376;-6.262;2023-02-17T14:49:44;101706.19;;;13.00;100.00
28167;BME280;15455;53.376;-6.262;2023-02-17T14:52:30;101697.44;;;13.01;100.00
28167;BME280;15455;53.376;-6.262;2023-02-17T14:55:32;101707.94;;;13.06;100.00
28167;BME280;15455;53.376;-6.262;2023-02-17T14:58:21;101697.44;;;12.89;100.00
28167;BME280;15455;53.376;-6.262;2023-02-17T15:01:12;101706.97;;;12.77;100.00
28167;BME280;15455;53.376;-6.262;2023-02-17T15:03:58;101708.69;;;12.67;100.00
28167;BME280;15455;53.376;-6.262;2023-02-17T15:06:46;101700.81;;;12.67;100.00
28167;BME280;15455;53.376;-6.262;2023-02-17T15:09:32;101709.53;;;12.68;100.00
28167;BME280;15455;53.376;-6.262;2023-02-17T15:12:20;101707.81;;;12.67;100.00
28167;BME280;15455;53.376;-6.262;2023-02-17T15:15:08;101706.94;;;12.69;100.00
28167;BME280;15455;53.376;-6.262;2023-02-17T15:17:54;101700.84;;;12.69;100.00
28167;BME280;15455;53.376;-6.262;2023-02-17T15:20:41;101692.97;;;12.67;100.00
28167;BME280;15455;53.376;-6.262;2023-02-17T15:23:29;101699.97;;;12.64;100.00
28167;BME280;15455;53.376;-6.262;2023-02-17T15:26:16;101694.72;;;12.65;100.00
28167;BME280;15455;53.376;-6.262;2023-02-17T15:29:01;101692.94;;;12.60;100.00
28167;BME280;15455;53.376;-6.262;2023-02-17T15:31:48;101678.94;;;12.58;100.00
28167;BME280;15455;53.376;-6.262;2023-02-17T15:34:34;101679.84;;;12.60;100.00
28167;BME280;15455;53.376;-6.262;2023-02-17T15:37:20;101674.59;;;12.57;100.00